createdAt,value
2022-12-03T00:00:12.609Z,1.83
2022-12-03T00:03:00.759Z,1.88
2022-12-03T00:05:28.358Z,1.85
2022-12-03T00:07:55.886Z,1.92
2022-12-03T00:10:23.120Z,1.96
2022-12-03T00:12:50.635Z,1.94
2022-12-03T00:15:17.928Z,1.94
2022-12-03T00:17:45.392Z,2.04
2022-12-03T00:20:21.248Z,2.06
2022-12-03T00:22:49.246Z,2.04
2022-12-03T00:25:17.244Z,1.97
2022-12-03T00:27:45.262Z,2.02
2022-12-03T00:30:14.129Z,1.98
2022-12-03T00:32:41.676Z,1.95
2022-12-03T00:35:09.726Z,1.92
2022-12-03T00:37:37.323Z,1.89
2022-12-03T00:40:07.201Z,1.83
2022-12-03T00:42:34.704Z,1.85
2022-12-03T00:45:01.995Z,1.76
2022-12-03T00:47:29.449Z,1.86
2022-12-03T00:49:56.689Z,1.76
2022-12-03T00:52:24.156Z,1.78
2022-12-03T00:54:51.838Z,1.86
2022-12-03T00:57:19.584Z,1.95
2022-12-03T00:59:46.751Z,1.93
2022-12-03T01:02:14.321Z,1.93
2022-12-03T01:04:42.335Z,2.00
2022-12-03T01:07:09.976Z,2.09
2022-12-03T01:09:37.291Z,2.14
2022-12-03T01:12:04.941Z,2.22
2022-12-03T01:14:32.200Z,2.21
2022-12-03T01:16:59.644Z,2.22
2022-12-03T01:19:26.998Z,2.20
2022-12-03T01:21:55.650Z,2.07
2022-12-03T01:24:22.886Z,1.97
2022-12-03T01:26:50.378Z,1.90
2022-12-03T01:29:17.616Z,1.91
2022-12-03T01:32:03.603Z,1.96
2022-12-03T01:34:30.802Z,1.99
2022-12-03T01:36:58.364Z,1.97
2022-12-03T01:39:25.610Z,2.01
2022-12-03T01:41:55.412Z,1.97
2022-12-03T01:44:27.458Z,2.04
2022-12-03T01:46:58.758Z,2.12
2022-12-03T01:49:42.572Z,2.12
2022-12-03T01:52:23.054Z,2.20
2022-12-03T01:55:00.566Z,2.21
2022-12-03T01:57:43.865Z,2.14
2022-12-03T02:00:18.842Z,2.06
2022-12-03T02:02:50.744Z,2.03
2022-12-03T02:05:23.241Z,2.10
2022-12-03T02:07:51.145Z,2.11
2022-12-03T02:10:31.441Z,2.17
2022-12-03T02:13:07.156Z,2.25
2022-12-03T02:15:36.056Z,2.29
2022-12-03T02:18:03.981Z,2.35
2022-12-03T02:20:35.932Z,2.26
2022-12-03T02:23:24.682Z,2.32
2022-12-03T02:25:52.034Z,2.22
2022-12-03T02:28:19.538Z,2.27
2022-12-03T02:30:46.833Z,2.39
2022-12-03T02:33:14.645Z,2.35
2022-12-03T02:35:42.020Z,2.35
2022-12-03T02:38:29.963Z,2.40
2022-12-03T02:41:04.851Z,2.47
2022-12-03T02:43:32.767Z,2.49
2022-12-03T02:46:02.649Z,2.48
2022-12-03T02:48:38.545Z,2.46
2022-12-03T02:51:10.224Z,2.46
2022-12-03T02:53:50.246Z,2.26
2022-12-03T02:56:22.899Z,2.12
2022-12-03T02:58:56.661Z,2.20
2022-12-03T03:01:24.351Z,2.26
2022-12-03T03:03:53.156Z,2.23
2022-12-03T03:06:22.036Z,2.24
2022-12-03T03:08:51.099Z,2.24
2022-12-03T03:11:18.654Z,2.28
2022-12-03T03:13:46.576Z,2.25
2022-12-03T03:16:13.958Z,2.16
2022-12-03T03:18:42.172Z,2.24
2022-12-03T03:21:09.659Z,2.32
2022-12-03T03:23:37.095Z,2.26
2022-12-03T03:26:12.251Z,2.18
2022-12-03T03:28:47.536Z,2.21
2022-12-03T03:31:19.586Z,2.20
2022-12-03T03:33:50.184Z,2.26
2022-12-03T03:36:18.222Z,2.25
2022-12-03T03:38:47.206Z,2.23
2022-12-03T03:41:16.092Z,2.24
2022-12-03T03:43:45.653Z,2.16
2022-12-03T03:46:14.660Z,2.15
2022-12-03T03:48:43.697Z,2.04
2022-12-03T03:51:12.587Z,2.05
2022-12-03T03:53:44.636Z,2.13
2022-12-03T03:56:12.776Z,2.21
2022-12-03T03:58:40.147Z,2.20
2022-12-03T04:01:09.260Z,2.20
2022-12-03T04:03:36.930Z,2.30
2022-12-03T04:06:04.704Z,2.35
2022-12-03T04:08:32.861Z,2.25
2022-12-03T04:11:18.655Z,2.31
2022-12-03T04:13:45.932Z,2.26
2022-12-03T04:16:13.396Z,2.15
2022-12-03T04:18:43.350Z,2.13
2022-12-03T04:21:36.135Z,2.12
2022-12-03T04:24:05.191Z,1.94
2022-12-03T04:26:51.758Z,1.97
2022-12-03T04:29:20.485Z,2.09
2022-12-03T04:32:06.568Z,2.20
2022-12-03T04:34:53.185Z,2.12
2022-12-03T04:37:20.931Z,2.10
2022-12-03T04:39:48.259Z,2.07
2022-12-03T04:42:15.908Z,1.92
2022-12-03T04:44:43.365Z,1.92
2022-12-03T04:47:18.301Z,1.93
2022-12-03T04:49:49.423Z,1.96
2022-12-03T04:52:19.983Z,2.03
2022-12-03T04:54:47.468Z,2.09
2022-12-03T04:57:15.087Z,2.04
2022-12-03T04:59:42.328Z,1.94
2022-12-03T05:02:10.009Z,2.07
2022-12-03T05:04:37.411Z,2.17
2022-12-03T05:07:05.000Z,2.08
2022-12-03T05:09:32.432Z,2.05
2022-12-03T05:12:00.000Z,2.19
2022-12-03T05:14:27.210Z,2.15
2022-12-03T05:16:54.738Z,2.05
2022-12-03T05:19:41.943Z,2.12
2022-12-03T05:22:09.424Z,2.14
2022-12-03T05:24:36.591Z,2.03
2022-12-03T05:27:04.211Z,2.00
2022-12-03T05:29:31.338Z,1.93
2022-12-03T05:31:58.871Z,1.99
2022-12-03T05:34:26.000Z,2.07
2022-12-03T05:36:53.411Z,1.93
2022-12-03T05:39:20.609Z,1.95
2022-12-03T05:42:06.407Z,1.93
2022-12-03T05:44:33.593Z,1.91
2022-12-03T05:47:01.023Z,1.88
2022-12-03T05:49:28.164Z,1.85
2022-12-03T05:51:58.599Z,1.88
2022-12-03T05:54:26.431Z,1.88
2022-12-03T05:56:53.960Z,1.76
2022-12-03T05:59:21.381Z,1.80
2022-12-03T06:01:48.878Z,1.87
2022-12-03T06:04:16.036Z,1.87
2022-12-03T06:06:43.615Z,1.84
2022-12-03T06:09:10.846Z,1.83
2022-12-03T06:11:40.019Z,1.91
2022-12-03T06:14:08.056Z,1.98
2022-12-03T06:16:35.685Z,2.03
2022-12-03T06:19:02.973Z,2.13
2022-12-03T06:21:30.386Z,2.16
2022-12-03T06:23:57.527Z,2.13
2022-12-03T06:26:25.016Z,2.19
2022-12-03T06:28:52.532Z,2.16
2022-12-03T06:31:20.107Z,2.04
2022-12-03T06:33:47.550Z,2.12
2022-12-03T06:36:17.807Z,2.15
2022-12-03T06:38:48.624Z,2.20
2022-12-03T06:41:16.051Z,2.23
2022-12-03T06:43:43.336Z,2.19
2022-12-03T06:46:10.936Z,2.11
2022-12-03T06:48:39.800Z,2.10
2022-12-03T06:51:07.242Z,2.04
2022-12-03T06:53:34.446Z,2.04
2022-12-03T06:56:01.904Z,1.97
2022-12-03T06:58:29.155Z,1.99
2022-12-03T07:00:56.603Z,2.03
2022-12-03T07:03:23.847Z,1.91
2022-12-03T07:05:51.333Z,1.97
2022-12-03T07:08:18.521Z,2.06
2022-12-03T07:10:46.116Z,2.16
2022-12-03T07:13:13.238Z,2.14
2022-12-03T07:15:40.786Z,2.16
2022-12-03T07:18:08.139Z,2.17
2022-12-03T07:20:35.594Z,2.24
2022-12-03T07:23:02.800Z,2.08
2022-12-03T07:25:30.509Z,2.07
2022-12-03T07:27:57.682Z,2.03
2022-12-03T07:30:25.788Z,2.08
2022-12-03T07:32:52.919Z,2.14
2022-12-03T07:35:20.368Z,2.21
2022-12-03T07:37:47.875Z,2.28
2022-12-03T07:40:15.599Z,2.15
2022-12-03T07:42:42.769Z,2.26
2022-12-03T07:45:11.032Z,2.42
2022-12-03T07:47:38.213Z,2.56
2022-12-03T07:50:06.571Z,2.66
2022-12-03T07:52:33.784Z,2.72
2022-12-03T07:55:01.218Z,2.78
2022-12-03T07:57:28.461Z,2.91
2022-12-03T07:59:55.901Z,2.89
2022-12-03T08:02:23.143Z,2.83
2022-12-03T08:04:51.188Z,2.73
2022-12-03T08:07:18.527Z,2.67
2022-12-03T08:09:46.262Z,2.59
2022-12-03T08:12:40.318Z,2.46
2022-12-03T08:15:11.507Z,2.34
2022-12-03T08:17:42.528Z,2.41
2022-12-03T08:20:20.361Z,2.16
2022-12-03T08:22:51.057Z,2.30
2022-12-03T08:25:32.159Z,2.30
2022-12-03T08:28:20.836Z,2.46
2022-12-03T08:31:01.579Z,2.53
2022-12-03T08:33:35.387Z,2.46
2022-12-03T08:36:29.317Z,2.44
2022-12-03T08:39:07.235Z,2.43
2022-12-03T08:41:55.156Z,2.50
2022-12-03T08:44:38.592Z,2.34
2022-12-03T08:47:24.454Z,2.29
2022-12-03T08:50:00.328Z,2.38
2022-12-03T08:52:33.304Z,2.45
2022-12-03T08:55:33.754Z,2.55
2022-12-03T08:58:16.416Z,2.86
2022-12-03T09:00:44.551Z,2.98
2022-12-03T09:03:19.422Z,3.14
2022-12-03T09:05:46.636Z,3.19
2022-12-03T09:08:14.161Z,3.36
2022-12-03T09:10:41.400Z,3.46
2022-12-03T09:13:09.313Z,3.66
2022-12-03T09:15:36.451Z,3.83
2022-12-03T09:18:04.149Z,3.75
2022-12-03T09:20:31.373Z,3.84
2022-12-03T09:22:58.845Z,3.86
2022-12-03T09:25:26.022Z,3.93
2022-12-03T09:27:53.741Z,4.00
2022-12-03T09:30:21.002Z,3.84
2022-12-03T09:32:48.589Z,4.04
2022-12-03T09:35:16.007Z,4.12
2022-12-03T09:37:43.684Z,4.13
2022-12-03T09:40:12.111Z,4.14
2022-12-03T09:42:40.015Z,4.20
2022-12-03T09:45:12.354Z,4.28
2022-12-03T09:47:50.676Z,4.10
2022-12-03T09:50:26.541Z,4.10
2022-12-03T09:52:58.574Z,4.14
2022-12-03T09:55:28.772Z,4.18
2022-12-03T09:57:57.703Z,4.19
2022-12-03T10:00:30.037Z,4.36
2022-12-03T10:03:02.598Z,4.50
2022-12-03T10:05:30.302Z,4.58
2022-12-03T10:08:08.477Z,4.58
2022-12-03T10:10:39.185Z,4.60
2022-12-03T10:13:10.856Z,4.47
2022-12-03T10:15:38.294Z,4.49
2022-12-03T10:18:30.795Z,4.26
2022-12-03T10:20:58.781Z,4.15
2022-12-03T10:23:31.475Z,3.91
2022-12-03T10:26:04.161Z,3.94
2022-12-03T10:28:40.042Z,3.72
2022-12-03T10:31:12.987Z,3.73
2022-12-03T10:33:45.265Z,3.58
2022-12-03T10:36:23.369Z,3.51
2022-12-03T10:39:16.517Z,3.85
2022-12-03T10:41:45.086Z,4.15
2022-12-03T10:44:30.600Z,4.34
2022-12-03T10:47:14.027Z,4.52
2022-12-03T10:49:42.756Z,4.50
2022-12-03T10:52:30.320Z,4.45
2022-12-03T10:54:58.208Z,4.24
2022-12-03T10:57:25.798Z,4.35
2022-12-03T10:59:53.324Z,4.40
2022-12-03T11:02:24.463Z,4.44
2022-12-03T11:04:52.838Z,4.41
2022-12-03T11:07:22.341Z,4.48
2022-12-03T11:09:54.790Z,4.51
2022-12-03T11:12:28.846Z,4.21
2022-12-03T11:14:57.624Z,4.17
2022-12-03T11:17:43.174Z,4.21
2022-12-03T11:20:33.685Z,4.06
2022-12-03T11:23:00.915Z,4.00
2022-12-03T11:25:28.361Z,4.25
2022-12-03T11:28:13.608Z,4.41
2022-12-03T11:30:50.655Z,4.62
2022-12-03T11:33:21.743Z,4.66
2022-12-03T11:36:04.529Z,4.67
2022-12-03T11:38:37.943Z,4.88
2022-12-03T11:41:13.111Z,4.99
2022-12-03T11:43:52.276Z,5.18
2022-12-03T11:46:36.389Z,5.32
2022-12-03T11:49:32.788Z,5.34
2022-12-03T11:52:11.387Z,4.87
2022-12-03T11:54:38.679Z,5.30
2022-12-03T11:57:27.750Z,5.50
2022-12-03T12:00:09.391Z,5.59
2022-12-03T12:02:36.951Z,5.88
2022-12-03T12:05:27.628Z,5.55
2022-12-03T12:07:56.343Z,5.40
2022-12-03T12:10:43.879Z,5.50
2022-12-03T12:13:34.052Z,5.24
2022-12-03T12:16:06.961Z,5.32
2022-12-03T12:18:45.796Z,5.31
2022-12-03T12:21:50.821Z,5.23
2022-12-03T12:24:54.204Z,5.15
2022-12-03T12:27:36.459Z,4.96
2022-12-03T12:30:19.909Z,4.98
2022-12-03T12:33:07.123Z,4.86
2022-12-03T12:35:34.646Z,4.55
2022-12-03T12:38:07.635Z,4.55
2022-12-03T12:40:38.747Z,4.34
2022-12-03T12:43:15.253Z,4.31
2022-12-03T12:45:45.620Z,4.20
2022-12-03T12:48:28.975Z,4.06
2022-12-03T12:51:19.442Z,3.78
2022-12-03T12:53:47.136Z,3.89
2022-12-03T12:56:32.185Z,3.68
2022-12-03T12:59:14.465Z,3.73
2022-12-03T13:01:44.941Z,3.57
2022-12-03T13:04:22.706Z,3.58
2022-12-03T13:06:54.035Z,3.70
2022-12-03T13:09:26.484Z,3.66
2022-12-03T13:12:03.935Z,3.74
2022-12-03T13:14:35.944Z,3.55
2022-12-03T13:17:18.441Z,3.50
2022-12-03T13:19:49.466Z,3.53
2022-12-03T13:22:23.085Z,3.54
2022-12-03T13:24:52.619Z,3.64
2022-12-03T13:27:20.102Z,3.52
2022-12-03T13:29:55.257Z,3.47
2022-12-03T13:32:34.224Z,3.45
2022-12-03T13:35:13.293Z,3.40
2022-12-03T13:37:40.861Z,3.37
2022-12-03T13:40:30.695Z,3.20
2022-12-03T13:42:59.539Z,3.29
2022-12-03T13:45:38.924Z,3.24
2022-12-03T13:48:25.689Z,3.09
2022-12-03T13:50:53.608Z,3.07
2022-12-03T13:53:34.944Z,2.84
2022-12-03T13:56:31.259Z,2.69
2022-12-03T13:59:01.309Z,2.69
2022-12-03T14:01:29.115Z,2.66
2022-12-03T14:03:57.119Z,2.70
2022-12-03T14:06:24.394Z,2.69
2022-12-03T14:08:51.897Z,2.59
2022-12-03T14:11:37.828Z,2.54
2022-12-03T14:14:05.472Z,2.53
2022-12-03T14:16:32.711Z,2.55
2022-12-03T14:19:00.316Z,2.61
2022-12-03T14:21:27.467Z,2.64
2022-12-03T14:23:54.925Z,2.59
2022-12-03T14:26:22.059Z,2.67
2022-12-03T14:28:49.535Z,2.62
2022-12-03T14:31:16.942Z,2.66
2022-12-03T14:33:44.446Z,2.61
2022-12-03T14:36:11.809Z,2.48
2022-12-03T14:38:39.351Z,2.50
2022-12-03T14:41:26.638Z,2.56
2022-12-03T14:43:54.066Z,2.59
2022-12-03T14:46:21.314Z,2.53
2022-12-03T14:48:48.749Z,2.45
2022-12-03T14:51:15.975Z,2.25
2022-12-03T14:53:43.419Z,2.13
2022-12-03T14:56:10.603Z,2.23
2022-12-03T14:58:38.473Z,2.17
2022-12-03T15:01:06.038Z,2.15
2022-12-03T15:03:33.589Z,2.22
2022-12-03T15:06:00.838Z,2.14
2022-12-03T15:08:28.949Z,2.03
2022-12-03T15:10:56.391Z,1.87
2022-12-03T15:13:23.851Z,1.94
2022-12-03T15:15:51.153Z,1.93
2022-12-03T15:18:18.830Z,1.95
2022-12-03T15:20:46.126Z,1.93
2022-12-03T15:23:14.745Z,1.83
2022-12-03T15:25:42.286Z,1.80
2022-12-03T15:28:10.179Z,1.85
2022-12-03T15:30:37.398Z,2.01
2022-12-03T15:33:05.396Z,2.17
2022-12-03T15:35:33.743Z,2.11
2022-12-03T15:38:01.443Z,2.09
2022-12-03T15:40:28.714Z,2.08
2022-12-03T15:42:56.232Z,2.12
2022-12-03T15:45:23.385Z,2.00
2022-12-03T15:47:50.863Z,1.95
2022-12-03T15:50:18.243Z,1.95
2022-12-03T15:52:45.705Z,1.93
2022-12-03T15:55:13.128Z,1.96
2022-12-03T15:57:40.743Z,2.00
2022-12-03T16:00:10.539Z,1.98
2022-12-03T16:02:38.123Z,1.99
2022-12-03T16:05:09.923Z,2.06
2022-12-03T16:07:38.218Z,2.00
2022-12-03T16:10:08.478Z,2.04
2022-12-03T16:12:36.035Z,2.01
2022-12-03T16:15:03.721Z,2.04
2022-12-03T16:17:31.144Z,2.05
2022-12-03T16:19:58.360Z,1.97
2022-12-03T16:22:25.794Z,2.05
2022-12-03T16:24:52.933Z,1.92
2022-12-03T16:27:25.302Z,1.89
2022-12-03T16:29:53.413Z,1.95
2022-12-03T16:32:21.190Z,1.97
2022-12-03T16:34:48.425Z,2.01
2022-12-03T16:37:16.081Z,2.10
2022-12-03T16:39:43.295Z,2.02
2022-12-03T16:42:16.961Z,1.88
2022-12-03T16:45:14.181Z,1.95
2022-12-03T16:47:41.678Z,1.97
2022-12-03T16:50:15.856Z,1.99
2022-12-03T16:52:47.621Z,1.98
2022-12-03T16:55:14.838Z,1.94
2022-12-03T16:57:42.304Z,2.10
2022-12-03T17:00:10.276Z,1.99
2022-12-03T17:02:37.759Z,1.98
2022-12-03T17:05:05.415Z,2.09
2022-12-03T17:07:32.963Z,2.05
2022-12-03T17:10:00.275Z,1.97
2022-12-03T17:12:42.306Z,2.19
2022-12-03T17:15:15.349Z,2.16
2022-12-03T17:17:42.961Z,2.16
2022-12-03T17:20:12.603Z,2.20
2022-12-03T17:22:41.545Z,2.24
2022-12-03T17:25:10.509Z,2.23
2022-12-03T17:27:43.543Z,2.09
2022-12-03T17:30:13.621Z,2.01
2022-12-03T17:32:41.427Z,1.99
2022-12-03T17:35:10.675Z,2.10
2022-12-03T17:37:38.552Z,2.13
2022-12-03T17:40:08.847Z,2.12
2022-12-03T17:42:36.428Z,2.10
2022-12-03T17:45:04.109Z,2.16
2022-12-03T17:47:31.780Z,2.11
2022-12-03T17:49:59.030Z,2.18
2022-12-03T17:52:26.547Z,2.16
2022-12-03T17:55:12.212Z,2.22
2022-12-03T17:57:41.444Z,2.16
2022-12-03T18:00:09.664Z,2.21
2022-12-03T18:02:37.218Z,2.20
2022-12-03T18:05:04.781Z,2.30
2022-12-03T18:07:32.885Z,2.21
2022-12-03T18:10:00.255Z,2.18
2022-12-03T18:12:27.884Z,2.22
2022-12-03T18:14:55.223Z,2.17
2022-12-03T18:17:22.737Z,2.20
2022-12-03T18:19:49.987Z,2.21
2022-12-03T18:22:17.914Z,2.23
2022-12-03T18:24:47.536Z,2.23
2022-12-03T18:27:17.838Z,2.34
2022-12-03T18:29:45.171Z,2.33
2022-12-03T18:32:27.689Z,2.23
2022-12-03T18:34:56.620Z,2.24
2022-12-03T18:37:28.759Z,2.23
2022-12-03T18:39:58.755Z,2.32
2022-12-03T18:42:27.187Z,2.33
2022-12-03T18:44:56.522Z,2.39
2022-12-03T18:47:28.912Z,2.50
2022-12-03T18:49:57.760Z,2.60
2022-12-03T18:52:25.621Z,2.64
2022-12-03T18:54:53.371Z,2.59
2022-12-03T18:57:20.831Z,2.65
2022-12-03T18:59:48.116Z,2.64
2022-12-03T19:03:01.999Z,2.60
2022-12-03T19:05:10.730Z,2.66
2022-12-03T19:07:38.542Z,2.57
2022-12-03T19:10:06.664Z,2.64
2022-12-03T19:12:34.463Z,2.62
2022-12-03T19:15:02.925Z,2.68
2022-12-03T19:17:30.557Z,2.76
2022-12-03T19:19:58.221Z,2.85
2022-12-03T19:22:25.842Z,2.79
2022-12-03T19:24:53.188Z,2.72
2022-12-03T19:27:20.727Z,2.82
2022-12-03T19:29:51.123Z,2.80
2022-12-03T19:32:18.622Z,2.70
2022-12-03T19:34:45.893Z,2.63
2022-12-03T19:37:13.363Z,2.68
2022-12-03T19:39:41.186Z,2.57
2022-12-03T19:42:10.053Z,2.55
2022-12-03T19:44:37.621Z,2.62
2022-12-03T19:47:05.175Z,2.58
2022-12-03T19:49:32.547Z,2.62
2022-12-03T19:52:00.038Z,2.70
2022-12-03T19:54:27.281Z,2.73
2022-12-03T19:56:54.792Z,2.77
2022-12-03T19:59:21.975Z,2.70
2022-12-03T20:01:49.602Z,2.77
2022-12-03T20:04:17.054Z,2.83
2022-12-03T20:06:45.521Z,2.80
2022-12-03T20:09:17.961Z,2.92
2022-12-03T20:11:46.183Z,2.89
2022-12-03T20:14:17.575Z,2.83
2022-12-03T20:16:45.626Z,2.87
2022-12-03T20:19:16.362Z,2.70
2022-12-03T20:21:44.904Z,2.81
2022-12-03T20:24:18.145Z,2.75
2022-12-03T20:26:45.784Z,2.71
2022-12-03T20:29:13.270Z,2.72
2022-12-03T20:31:41.000Z,2.70
2022-12-03T20:34:08.326Z,2.76
2022-12-03T20:36:36.117Z,2.73
2022-12-03T20:39:07.516Z,2.58
2022-12-03T20:41:36.997Z,2.65
2022-12-03T20:44:07.649Z,2.72
2022-12-03T20:46:36.296Z,2.77
2022-12-03T20:49:04.314Z,2.76
2022-12-03T20:51:32.196Z,2.84
2022-12-03T20:54:01.321Z,2.81
2022-12-03T20:56:35.907Z,2.79
2022-12-03T20:59:07.195Z,2.79
2022-12-03T21:01:36.413Z,2.84
2022-12-03T21:04:05.497Z,2.84
2022-12-03T21:06:36.204Z,2.78
2022-12-03T21:09:06.932Z,2.79
2022-12-03T21:11:36.213Z,2.83
2022-12-03T21:14:05.117Z,2.84
2022-12-03T21:17:07.898Z,2.83
2022-12-03T21:19:24.865Z,2.89
2022-12-03T21:21:52.594Z,2.98
2022-12-03T21:24:20.017Z,3.02
2022-12-03T21:26:47.660Z,3.02
2022-12-03T21:29:15.046Z,3.06
2022-12-03T21:31:42.864Z,3.00
2022-12-03T21:34:11.278Z,3.08
2022-12-03T21:36:39.672Z,3.04
2022-12-03T21:39:08.058Z,3.11
2022-12-03T21:41:35.677Z,3.05
2022-12-03T21:44:03.938Z,3.08
2022-12-03T21:47:12.689Z,3.06
2022-12-03T21:49:20.902Z,3.07
2022-12-03T21:51:49.065Z,3.05
2022-12-03T21:54:16.693Z,2.97
2022-12-03T21:56:44.408Z,2.98
2022-12-03T21:59:11.775Z,2.99
2022-12-03T22:01:42.894Z,3.07
2022-12-03T22:04:14.117Z,3.06
2022-12-03T22:06:41.992Z,3.19
2022-12-03T22:09:09.259Z,3.10
2022-12-03T22:11:36.936Z,3.01
2022-12-03T22:14:06.897Z,3.05
2022-12-03T22:16:34.741Z,3.03
2022-12-03T22:19:02.290Z,2.87
2022-12-03T22:21:30.665Z,2.83
2022-12-03T22:23:59.059Z,2.84
2022-12-03T22:26:27.290Z,2.92
2022-12-03T22:28:55.245Z,2.95
2022-12-03T22:31:27.411Z,3.02
2022-12-03T22:33:57.434Z,3.00
2022-12-03T22:36:24.968Z,2.99
2022-12-03T22:38:52.246Z,2.98
2022-12-03T22:41:20.590Z,3.09
2022-12-03T22:43:49.704Z,3.11
2022-12-03T22:46:17.640Z,3.06
2022-12-03T22:48:47.549Z,3.07
2022-12-03T22:51:21.361Z,3.09
2022-12-03T22:53:55.045Z,3.12
2022-12-03T22:56:22.818Z,3.18
2022-12-03T22:58:52.819Z,3.22
2022-12-03T23:01:26.871Z,3.11
2022-12-03T23:03:55.053Z,3.09
2022-12-03T23:06:24.202Z,3.16
2022-12-03T23:08:52.397Z,3.25
2022-12-03T23:11:20.538Z,3.31
2022-12-03T23:13:49.197Z,3.25
2022-12-03T23:16:24.752Z,3.19
2022-12-03T23:18:53.273Z,3.19
2022-12-03T23:21:29.968Z,3.19
2022-12-03T23:24:00.067Z,3.19
2022-12-03T23:26:29.025Z,3.24
2022-12-03T23:28:56.638Z,3.21
2022-12-03T23:31:31.422Z,3.29
2022-12-03T23:33:59.943Z,3.25
2022-12-03T23:36:31.757Z,3.28
2022-12-03T23:38:59.005Z,3.34
2022-12-03T23:41:31.584Z,3.28
2022-12-03T23:43:58.819Z,3.20
2022-12-03T23:46:28.166Z,3.12
2022-12-03T23:48:56.201Z,3.19
2022-12-03T23:51:25.654Z,3.23
2022-12-03T23:53:54.806Z,3.26
2022-12-03T23:56:28.122Z,3.28
2022-12-03T23:58:56.019Z,3.28
